Time;durP1;ratioP1;P1;durP2;ratioP2;P2;SDS_P1;SDS_P2;PMS_P1;PMS_P2;Temp;Humidity;BMP_temperature;BMP_pressure;BME280_temperature;BME280_humidity;BME280_pressure;Samples;Min_cycle;Max_cycle;Signal;HPM_P1;HPM_P2
2022/07/25 00:00:12;;;;;;;0.22;0.22;;;23.30;99.90;;;;;;5092485;28;20119;-75
2022/07/25 00:02:38;;;;;;;0.20;0.20;;;23.20;99.90;;;;;;5123073;27;20037;-75
2022/07/25 00:05:04;;;;;;;0.40;0.40;;;23.20;99.90;;;;;;5089706;28;20399;-75
2022/07/25 00:07:30;;;;;;;0.30;0.30;;;23.30;99.90;;;;;;5092158;28;20111;-75
2022/07/25 00:09:56;;;;;;;0.73;0.50;;;23.30;99.90;;;;;;5126620;27;20076;-75
2022/07/25 00:12:22;;;;;;;0.32;0.32;;;23.30;99.90;;;;;;5108287;28;20039;-75
2022/07/25 00:14:47;;;;;;;0.40;0.40;;;23.30;99.90;;;;;;5125817;27;20392;-74
2022/07/25 00:17:13;;;;;;;0.40;0.32;;;23.30;99.90;;;;;;5125802;27;20172;-74
2022/07/25 00:19:39;;;;;;;0.75;0.40;;;23.30;99.90;;;;;;5074088;28;20039;-74
2022/07/25 00:22:05;;;;;;;0.68;0.50;;;23.30;99.90;;;;;;5075364;28;20141;-74
2022/07/25 00:24:31;;;;;;;0.40;0.40;;;23.30;99.90;;;;;;5125772;27;20517;-75
2022/07/25 00:26:56;;;;;;;0.30;0.30;;;23.30;99.90;;;;;;5073787;28;20036;-75
2022/07/25 00:29:22;;;;;;;0.38;0.38;;;23.30;99.90;;;;;;5125299;27;20040;-74
2022/07/25 00:31:48;;;;;;;0.28;0.28;;;23.20;99.90;;;;;;5078850;28;20058;-74
2022/07/25 00:34:13;;;;;;;0.40;0.40;;;23.30;99.90;;;;;;5065023;28;20044;-75
2022/07/25 00:36:39;;;;;;;0.40;0.40;;;23.30;99.90;;;;;;5078216;28;20123;-75
2022/07/25 00:39:05;;;;;;;0.40;0.40;;;23.20;99.90;;;;;;5101761;27;20047;-75
2022/07/25 00:41:31;;;;;;;0.40;0.40;;;23.20;99.90;;;;;;5091310;27;20446;-75
2022/07/25 00:43:57;;;;;;;0.40;0.40;;;23.20;99.90;;;;;;5098477;27;20486;-75
2022/07/25 00:46:22;;;;;;;1.13;0.50;;;23.20;99.90;;;;;;5084159;28;20054;-75
2022/07/25 00:48:48;;;;;;;0.40;0.40;;;23.10;99.90;;;;;;5103776;28;20058;-75
2022/07/25 00:51:15;;;;;;;0.40;0.40;;;23.10;99.90;;;;;;5100920;28;20035;-75
2022/07/25 00:53:41;;;;;;;0.40;0.40;;;23.10;99.90;;;;;;5093845;28;20032;-75
2022/07/25 00:56:07;;;;;;;0.50;0.50;;;23.10;99.90;;;;;;5077669;27;20405;-75
2022/07/25 00:58:33;;;;;;;0.45;0.45;;;23.00;99.90;;;;;;5077916;28;20032;-75
2022/07/25 01:01:00;;;;;;;0.40;0.40;;;23.00;99.90;;;;;;5106758;27;20126;-75
2022/07/25 01:03:26;;;;;;;1.00;0.40;;;23.00;99.90;;;;;;5099174;28;20123;-75
2022/07/25 01:05:52;;;;;;;0.60;0.60;;;23.00;99.90;;;;;;5086904;27;20042;-75
2022/07/25 01:08:18;;;;;;;0.43;0.40;;;22.90;99.90;;;;;;5098610;27;20102;-75
2022/07/25 01:10:45;;;;;;;0.47;0.47;;;22.90;99.90;;;;;;5094913;28;20522;-75
2022/07/25 01:13:11;;;;;;;0.50;0.50;;;22.90;99.90;;;;;;5077348;28;20046;-75
2022/07/25 01:15:37;;;;;;;0.40;0.40;;;22.80;99.90;;;;;;5102237;28;20036;-75
2022/07/25 01:18:03;;;;;;;0.60;0.60;;;22.90;99.90;;;;;;5086760;27;20028;-76
2022/07/25 01:20:30;;;;;;;0.60;0.60;;;22.80;99.90;;;;;;5096913;27;20135;-75
2022/07/25 01:22:56;;;;;;;0.50;0.50;;;22.80;99.90;;;;;;5097066;27;20093;-75
2022/07/25 01:25:23;;;;;;;0.55;0.50;;;22.80;99.90;;;;;;5076699;28;20347;-75
2022/07/25 01:27:50;;;;;;;0.40;0.40;;;22.80;99.90;;;;;;5093498;28;20045;-75
2022/07/25 01:30:16;;;;;;;0.60;0.60;;;22.80;99.90;;;;;;5098513;27;20108;-74
2022/07/25 01:32:44;;;;;;;0.60;0.60;;;22.70;99.90;;;;;;5103730;27;20042;-75
2022/07/25 01:35:12;;;;;;;1.05;0.77;;;22.70;99.90;;;;;;5088370;27;20040;-75
2022/07/25 01:37:38;;;;;;;0.60;0.60;;;22.60;99.90;;;;;;5101132;28;20050;-75
2022/07/25 01:40:05;;;;;;;0.73;0.68;;;22.60;99.90;;;;;;5077353;27;20047;-75
2022/07/25 01:42:31;;;;;;;0.60;0.60;;;22.60;99.90;;;;;;5094406;28;20035;-75
2022/07/25 01:44:57;;;;;;;1.02;0.50;;;22.60;99.90;;;;;;5077237;28;20279;-75
2022/07/25 01:47:22;;;;;;;0.50;0.50;;;22.50;99.90;;;;;;5086447;27;20410;-74
2022/07/25 01:49:48;;;;;;;1.35;0.68;;;22.50;99.90;;;;;;5106929;28;20035;-75
2022/07/25 01:52:14;;;;;;;0.57;0.55;;;22.50;99.90;;;;;;5080544;27;20096;-74
2022/07/25 01:54:40;;;;;;;0.60;0.60;;;22.40;99.90;;;;;;5107442;27;20066;-75
2022/07/25 01:57:07;;;;;;;0.60;0.60;;;22.40;99.90;;;;;;5100944;28;20595;-74
2022/07/25 01:59:37;;;;;;;0.52;0.50;;;22.40;99.90;;;;;;5110755;28;20454;-74
2022/07/25 02:02:02;;;;;;;0.85;0.55;;;22.30;99.90;;;;;;5129153;27;20097;-75
2022/07/25 02:04:28;;;;;;;0.60;0.57;;;22.30;99.90;;;;;;5095599;27;20035;-75
2022/07/25 02:06:54;;;;;;;0.70;0.70;;;22.30;99.90;;;;;;5078607;27;20036;-74
2022/07/25 02:09:19;;;;;;;1.00;0.90;;;22.20;99.90;;;;;;5100106;27;20043;-74
2022/07/25 02:11:45;;;;;;;3.03;2.00;;;22.20;99.90;;;;;;5093668;28;20455;-74
2022/07/25 02:14:11;;;;;;;2.00;1.67;;;22.10;99.90;;;;;;5096331;27;20047;-74
2022/07/25 02:16:36;;;;;;;1.90;1.50;;;22.00;99.90;;;;;;5094656;28;20044;-75
2022/07/25 02:19:02;;;;;;;1.90;1.70;;;21.90;99.90;;;;;;5128908;27;20035;-75
2022/07/25 02:21:28;;;;;;;1.45;1.33;;;21.80;99.90;;;;;;5096574;28;20530;-75
2022/07/25 02:23:54;;;;;;;2.55;1.88;;;21.80;99.90;;;;;;5095219;28;20039;-74
2022/07/25 02:26:20;;;;;;;3.10;2.10;;;21.80;99.90;;;;;;5129538;27;20039;-75
2022/07/25 02:28:45;;;;;;;3.08;2.50;;;21.70;99.90;;;;;;5098599;27;20039;-75
2022/07/25 02:31:11;;;;;;;2.35;2.08;;;21.70;99.90;;;;;;5094563;28;20124;-75
2022/07/25 02:33:37;;;;;;;2.08;1.88;;;21.70;99.90;;;;;;5100363;28;20039;-75
2022/07/25 02:36:03;;;;;;;1.85;1.60;;;21.70;99.90;;;;;;5083779;27;20067;-74
2022/07/25 02:38:29;;;;;;;1.50;1.40;;;21.80;99.90;;;;;;5098580;28;20122;-74
2022/07/25 02:40:54;;;;;;;1.60;1.48;;;21.80;99.90;;;;;;5116511;27;20058;-75
2022/07/25 02:43:20;;;;;;;1.73;1.48;;;21.80;99.90;;;;;;5092204;27;20148;-74
2022/07/25 02:45:46;;;;;;;1.30;1.20;;;21.80;99.90;;;;;;5115337;27;20043;-74
2022/07/25 02:48:12;;;;;;;1.27;1.15;;;21.80;99.90;;;;;;5059567;28;20036;-74
2022/07/25 02:50:38;;;;;;;1.10;1.00;;;21.80;99.90;;;;;;5092723;28;20122;-74
2022/07/25 02:53:04;;;;;;;1.15;0.90;;;21.80;99.90;;;;;;5097104;28;20031;-74
2022/07/25 02:55:30;;;;;;;0.80;0.80;;;21.80;99.90;;;;;;5093117;28;20040;-74
2022/07/25 02:57:56;;;;;;;1.27;1.08;;;21.80;99.90;;;;;;5105087;28;20043;-74
2022/07/25 03:00:22;;;;;;;0.80;0.70;;;21.70;99.90;;;;;;5106842;28;20108;-74
2022/07/25 03:02:48;;;;;;;0.75;0.60;;;21.60;99.90;;;;;;5093500;28;20035;-74
2022/07/25 03:05:14;;;;;;;0.80;0.80;;;21.60;99.90;;;;;;5093319;28;20431;-74
2022/07/25 03:07:41;;;;;;;0.60;0.60;;;21.60;99.90;;;;;;5087120;28;20036;-75
2022/07/25 03:10:09;;;;;;;0.63;0.50;;;21.60;99.90;;;;;;5094602;28;20040;-74
2022/07/25 03:12:35;;;;;;;0.60;0.60;;;21.50;99.90;;;;;;5106860;28;20051;-74
2022/07/25 03:15:02;;;;;;;0.60;0.60;;;21.40;99.90;;;;;;5100018;28;20065;-74
2022/07/25 03:17:28;;;;;;;0.90;0.80;;;21.30;99.90;;;;;;5097922;28;20788;-74
2022/07/25 03:19:54;;;;;;;1.00;0.90;;;21.20;99.90;;;;;;5084290;28;20143;-74
2022/07/25 03:22:21;;;;;;;0.70;0.70;;;21.10;99.90;;;;;;5126460;27;20055;-74
2022/07/25 03:24:46;;;;;;;0.57;0.57;;;21.10;99.90;;;;;;5094165;28;20039;-74
2022/07/25 03:27:13;;;;;;;0.50;0.45;;;21.00;99.90;;;;;;5097093;28;20058;-74
2022/07/25 03:29:40;;;;;;;0.93;0.80;;;20.90;99.90;;;;;;5129119;27;20047;-74
2022/07/25 03:32:06;;;;;;;1.08;0.98;;;20.90;99.90;;;;;;5101168;27;20050;-74
2022/07/25 03:34:32;;;;;;;1.00;0.90;;;20.80;99.90;;;;;;5112246;27;20043;-74
2022/07/25 03:36:59;;;;;;;0.73;0.73;;;20.70;99.90;;;;;;5112726;28;20066;-74
2022/07/25 03:39:25;;;;;;;1.02;0.90;;;20.70;99.90;;;;;;5099006;28;20031;-74
2022/07/25 03:41:51;;;;;;;0.98;0.88;;;20.70;99.90;;;;;;5094576;28;20078;-74
2022/07/25 03:44:21;;;;;;;0.90;0.70;;;20.70;99.90;;;;;;5078808;28;20039;-74
2022/07/25 03:46:47;;;;;;;0.70;0.70;;;20.60;99.90;;;;;;5079780;28;20092;-74
2022/07/25 03:49:12;;;;;;;0.55;0.55;;;20.70;99.90;;;;;;5096509;28;20043;-74
2022/07/25 03:51:38;;;;;;;0.60;0.60;;;20.60;99.90;;;;;;5098670;27;20053;-74
2022/07/25 03:54:05;;;;;;;0.70;0.60;;;20.70;99.90;;;;;;5094341;27;20072;-74
2022/07/25 03:56:42;;;;;;;0.80;0.70;;;20.70;99.90;;;;;;5073328;28;20130;-74
2022/07/25 03:59:09;;;;;;;0.70;0.70;;;20.70;99.90;;;;;;5094663;28;20039;-74
2022/07/25 04:01:36;;;;;;;1.13;0.70;;;20.70;99.90;;;;;;5128438;27;20054;-74
2022/07/25 04:04:02;;;;;;;0.57;0.57;;;20.80;99.90;;;;;;5097442;27;20374;-74
2022/07/25 04:06:27;;;;;;;0.60;0.60;;;20.70;99.90;;;;;;5114687;27;20031;-74
2022/07/25 04:08:54;;;;;;;0.70;0.70;;;20.80;99.90;;;;;;5111997;27;20043;-74
2022/07/25 04:11:21;;;;;;;0.82;0.75;;;20.80;99.90;;;;;;5093838;27;20088;-74
2022/07/25 04:13:47;;;;;;;1.20;0.90;;;20.80;99.90;;;;;;5102162;27;20096;-74
2022/07/25 04:16:14;;;;;;;0.95;0.85;;;20.80;99.90;;;;;;5107790;27;20027;-74
2022/07/25 04:18:40;;;;;;;0.75;0.75;;;20.80;99.90;;;;;;5083769;27;20182;-74
2022/07/25 04:21:06;;;;;;;0.70;0.68;;;20.90;99.90;;;;;;5100202;27;20046;-74
2022/07/25 04:23:32;;;;;;;0.65;0.65;;;20.90;99.90;;;;;;5112313;27;20050;-73
2022/07/25 04:25:58;;;;;;;0.70;0.70;;;20.90;99.90;;;;;;5101708;28;20048;-74
2022/07/25 04:28:24;;;;;;;;;;;20.90;99.90;;;;;;5097761;27;20585;-74
2022/07/25 04:30:50;;;;;;;0.90;0.80;;;21.00;99.90;;;;;;5133237;27;19977;-73
2022/07/25 04:33:16;;;;;;;1.02;0.93;;;21.00;99.90;;;;;;5097826;28;20139;-73
2022/07/25 04:35:43;;;;;;;0.90;0.80;;;21.10;99.90;;;;;;5092919;28;20126;-73
2022/07/25 04:38:08;;;;;;;0.88;0.80;;;21.10;99.90;;;;;;5082073;27;20043;-74
2022/07/25 04:40:34;;;;;;;1.25;0.90;;;21.10;99.90;;;;;;5109016;27;20031;-73
2022/07/25 04:43:00;;;;;;;1.10;1.00;;;21.10;99.90;;;;;;5103807;28;20040;-73
2022/07/25 04:45:25;;;;;;;;;;;21.20;99.90;;;;;;5113097;27;20042;-73
2022/07/25 04:47:51;;;;;;;1.23;1.13;;;21.20;99.90;;;;;;5098208;27;19926;-73
2022/07/25 04:50:17;;;;;;;;;;;21.20;99.90;;;;;;5135311;27;20510;-73
2022/07/25 04:52:43;;;;;;;1.13;1.00;;;21.20;99.90;;;;;;5098029;27;19923;-74
2022/07/25 04:55:09;;;;;;;;;;;21.20;99.90;;;;;;5092698;27;20028;-73
2022/07/25 04:57:35;;;;;;;1.30;1.20;;;21.20;99.90;;;;;;5104506;27;20291;-73
2022/07/25 05:00:06;;;;;;;1.30;1.08;;;21.20;99.90;;;;;;5089406;28;20035;-75
2022/07/25 05:02:32;;;;;;;1.55;1.45;;;21.20;99.90;;;;;;5076152;28;20478;-73
2022/07/25 05:04:58;;;;;;;1.23;1.13;;;21.20;99.90;;;;;;5082884;28;20048;-73
2022/07/25 05:07:24;;;;;;;1.30;1.20;;;21.20;99.90;;;;;;5117030;27;20078;-73
2022/07/25 05:09:49;;;;;;;;;;;21.20;99.90;;;;;;5090495;28;20051;-72
2022/07/25 05:12:15;;;;;;;1.60;1.48;;;21.20;99.90;;;;;;5091424;28;19926;-73
2022/07/25 05:14:40;;;;;;;;;;;21.20;99.90;;;;;;5092212;28;20044;-73
2022/07/25 05:17:06;;;;;;;1.67;1.52;;;21.30;99.90;;;;;;5127289;27;19916;-73
2022/07/25 05:19:32;;;;;;;1.13;1.02;;;21.30;99.90;;;;;;5093618;28;20031;-72
2022/07/25 05:21:57;;;;;;;;;;;21.30;99.90;;;;;;5077181;28;20126;-73
2022/07/25 05:24:23;;;;;;;1.45;1.35;;;21.30;99.90;;;;;;5093182;28;19916;-73
2022/07/25 05:26:49;;;;;;;1.40;1.30;;;21.40;99.90;;;;;;5093037;28;20507;-73
2022/07/25 05:29:15;;;;;;;1.67;1.33;;;21.40;99.90;;;;;;5080271;27;20456;-74
2022/07/25 05:31:41;;;;;;;1.10;1.00;;;21.40;99.90;;;;;;5103197;27;20100;-74
2022/07/25 05:34:07;;;;;;;1.25;1.15;;;21.40;99.90;;;;;;5095851;28;20031;-74
2022/07/25 05:36:33;;;;;;;1.35;1.25;;;21.40;99.90;;;;;;5087541;27;20094;-74
2022/07/25 05:38:59;;;;;;;1.30;1.20;;;21.40;99.90;;;;;;5079405;28;20402;-74
2022/07/25 05:41:24;;;;;;;;;;;21.40;99.90;;;;;;5097013;28;20043;-74
2022/07/25 05:43:50;;;;;;;1.30;1.20;;;21.40;99.90;;;;;;5090933;28;19922;-74
2022/07/25 05:46:17;;;;;;;1.17;1.08;;;21.40;99.90;;;;;;5075509;28;20043;-74
2022/07/25 05:48:43;;;;;;;1.70;1.30;;;21.40;99.90;;;;;;5092627;27;20040;-73
2022/07/25 05:51:09;;;;;;;1.17;1.08;;;21.50;99.90;;;;;;5095098;27;20047;-72
2022/07/25 05:53:35;;;;;;;1.40;1.30;;;21.50;99.90;;;;;;5101633;28;20043;-73
2022/07/25 05:56:00;;;;;;;1.48;1.38;;;21.50;99.90;;;;;;5092166;28;20044;-73
2022/07/25 05:58:26;;;;;;;1.50;1.20;;;21.50;99.90;;;;;;5097150;28;20063;-73
2022/07/25 06:00:52;;;;;;;1.60;1.50;;;21.50;99.90;;;;;;5100052;27;20035;-73
2022/07/25 06:03:18;;;;;;;1.27;1.10;;;21.60;99.90;;;;;;5093930;28;20497;-73
2022/07/25 06:05:45;;;;;;;2.08;1.40;;;21.70;99.90;;;;;;5117214;27;20428;-72
2022/07/25 06:08:12;;;;;;;1.45;1.35;;;21.70;99.90;;;;;;5097912;28;20378;-72
2022/07/25 06:10:38;;;;;;;1.30;1.20;;;21.80;99.90;;;;;;5097000;27;20057;-72
2022/07/25 06:13:04;;;;;;;1.40;1.20;;;21.80;99.90;;;;;;5096672;28;20142;-72
2022/07/25 06:15:30;;;;;;;1.85;1.67;;;21.80;99.90;;;;;;5092915;28;20135;-72
2022/07/25 06:17:55;;;;;;;1.98;1.80;;;21.90;99.90;;;;;;5100090;27;20065;-72
2022/07/25 06:20:21;;;;;;;1.90;1.40;;;22.00;99.90;;;;;;5096967;28;20046;-72
2022/07/25 06:22:47;;;;;;;1.63;1.52;;;22.10;99.90;;;;;;5096641;28;20039;-72
2022/07/25 06:25:13;;;;;;;1.98;1.63;;;22.10;99.90;;;;;;5110028;28;20039;-73
2022/07/25 06:27:39;;;;;;;2.03;1.80;;;22.10;99.90;;;;;;5096916;28;20112;-73
2022/07/25 06:30:06;;;;;;;2.10;1.90;;;22.20;99.90;;;;;;5092832;28;20051;-73
2022/07/25 06:32:32;;;;;;;2.17;1.98;;;22.20;99.90;;;;;;5095884;27;20039;-81
2022/07/25 06:34:58;;;;;;;1.90;1.70;;;22.30;99.90;;;;;;5089391;28;20058;-73
2022/07/25 06:37:24;;;;;;;2.30;1.90;;;22.40;99.90;;;;;;5069668;28;20074;-73
2022/07/25 06:39:49;;;;;;;2.30;2.10;;;22.50;99.90;;;;;;5094166;27;20378;-73
2022/07/25 06:42:15;;;;;;;2.88;2.50;;;22.70;99.90;;;;;;5098744;28;20114;-73
2022/07/25 06:44:41;;;;;;;2.45;2.25;;;22.90;99.90;;;;;;5090102;28;20122;-73
2022/07/25 06:47:11;;;;;;;2.97;2.67;;;23.10;99.90;;;;;;5090993;28;20448;-74
2022/07/25 06:49:37;;;;;;;2.70;2.42;;;23.20;99.90;;;;;;5102872;27;20050;-73
2022/07/25 06:52:04;;;;;;;2.33;2.13;;;23.30;99.90;;;;;;5094433;27;20086;-73
2022/07/25 06:54:30;;;;;;;2.58;2.38;;;23.40;99.90;;;;;;5100815;28;20504;-74
2022/07/25 06:56:55;;;;;;;2.30;2.10;;;23.50;99.90;;;;;;5087269;28;20038;-73
2022/07/25 06:59:21;;;;;;;3.13;2.60;;;23.40;99.90;;;;;;5080898;28;20040;-73
2022/07/25 07:01:47;;;;;;;2.97;2.67;;;23.40;99.90;;;;;;5093163;28;20093;-74
2022/07/25 07:04:12;;;;;;;3.30;3.00;;;23.30;99.90;;;;;;5105879;27;20083;-73
2022/07/25 07:06:38;;;;;;;2.72;2.53;;;23.30;99.90;;;;;;5077714;28;20075;-73
2022/07/25 07:09:05;;;;;;;3.15;2.85;;;23.30;99.90;;;;;;5098493;28;20040;-73
2022/07/25 07:11:30;;;;;;;3.08;2.78;;;23.30;99.90;;;;;;5087598;28;20031;-73
2022/07/25 07:13:56;;;;;;;3.38;2.88;;;23.40;99.90;;;;;;5119093;27;20035;-73
2022/07/25 07:16:22;;;;;;;3.13;2.83;;;23.30;99.90;;;;;;5114438;28;20132;-73
2022/07/25 07:18:47;;;;;;;2.47;2.28;;;23.30;99.90;;;;;;5084742;28;20050;-73
2022/07/25 07:21:13;;;;;;;3.67;3.22;;;23.40;99.90;;;;;;5097029;28;20244;-73
2022/07/25 07:23:39;;;;;;;5.07;4.53;;;23.40;99.90;;;;;;5090003;28;20047;-73
2022/07/25 07:26:05;;;;;;;5.38;4.15;;;23.30;99.90;;;;;;5077200;28;20040;-73
2022/07/25 07:28:30;;;;;;;4.10;3.70;;;23.40;99.90;;;;;;5078065;28;20323;-74
2022/07/25 07:30:56;;;;;;;3.25;2.95;;;23.40;99.90;;;;;;5092735;28;20051;-73
2022/07/25 07:33:22;;;;;;;3.95;3.25;;;23.50;99.90;;;;;;5091585;28;20134;-73
2022/07/25 07:35:48;;;;;;;5.32;3.67;;;23.50;99.90;;;;;;5093167;27;20110;-73
2022/07/25 07:38:13;;;;;;;3.55;3.10;;;23.60;99.90;;;;;;5080121;28;20044;-73
2022/07/25 07:40:39;;;;;;;2.65;2.45;;;23.60;99.90;;;;;;5095766;28;20050;-72
2022/07/25 07:43:05;;;;;;;4.18;3.78;;;23.70;99.90;;;;;;5091187;28;20040;-72
2022/07/25 07:45:31;;;;;;;3.08;2.75;;;23.70;99.90;;;;;;5094726;28;20039;-72
2022/07/25 07:47:57;;;;;;;4.80;4.00;;;23.80;99.90;;;;;;5078557;28;20494;-73
2022/07/25 07:50:26;;;;;;;6.53;4.00;;;23.70;99.90;;;;;;5097970;28;20058;-72
2022/07/25 07:52:54;;;;;;;3.35;2.90;;;23.60;99.90;;;;;;5123733;27;20390;-73
2022/07/25 07:58:06;;;;;;;2.80;2.42;;;23.80;99.90;;;;;;5104663;28;20467;-73
2022/07/25 08:00:35;;;;;;;2.28;1.98;;;23.90;99.90;;;;;;5095183;28;20036;-74
2022/07/25 08:03:01;;;;;;;2.97;2.40;;;24.00;99.90;;;;;;5092473;28;20039;-73
2022/07/25 08:05:41;;;;;;;2.83;2.20;;;24.00;99.90;;;;;;5091904;28;20080;-73
2022/07/25 08:08:09;;;;;;;2.25;2.00;;;23.90;99.90;;;;;;5092879;28;20040;-73
2022/07/25 08:10:39;;;;;;;2.22;2.03;;;24.00;99.90;;;;;;5093538;28;20036;-73
2022/07/25 08:13:22;;;;;;;2.22;1.55;;;24.00;99.90;;;;;;5092389;28;20048;-72
2022/07/25 08:15:51;;;;;;;2.28;2.00;;;24.10;99.90;;;;;;5099289;28;20463;-73
2022/07/25 08:18:17;;;;;;;3.03;2.25;;;24.20;99.90;;;;;;5095185;28;20044;-73
2022/07/25 08:20:43;;;;;;;2.50;1.85;;;24.30;99.90;;;;;;5077988;28;20039;-73
2022/07/25 08:23:12;;;;;;;2.95;2.08;;;24.30;99.90;;;;;;5081812;27;20081;-73
2022/07/25 08:25:38;;;;;;;3.47;3.17;;;24.40;99.90;;;;;;5118166;27;20457;-73
2022/07/25 08:28:05;;;;;;;2.10;1.90;;;24.30;99.90;;;;;;5129895;27;20135;-73
2022/07/25 08:30:31;;;;;;;3.58;2.00;;;24.30;99.90;;;;;;5129592;27;20051;-73
2022/07/25 08:33:02;;;;;;;2.13;1.77;;;24.30;99.90;;;;;;5106338;27;20117;-73
2022/07/25 08:35:30;;;;;;;2.85;2.10;;;24.20;99.90;;;;;;5094322;28;20505;-73
2022/07/25 08:37:56;;;;;;;2.50;1.98;;;24.10;99.90;;;;;;5086389;27;20490;-73
2022/07/25 08:40:24;;;;;;;1.75;1.63;;;24.00;99.90;;;;;;5097268;27;20096;-73
2022/07/25 08:42:51;;;;;;;1.75;1.38;;;23.90;99.90;;;;;;5100945;28;20040;-73
2022/07/25 08:45:19;;;;;;;1.40;1.30;;;23.90;99.90;;;;;;5114022;27;20036;-73
2022/07/25 08:47:46;;;;;;;1.58;1.48;;;23.80;99.90;;;;;;5096899;28;20085;-73
2022/07/25 08:50:15;;;;;;;1.85;1.50;;;23.70;99.90;;;;;;5084495;27;20043;-74
2022/07/25 08:52:46;;;;;;;2.08;1.60;;;23.70;99.90;;;;;;5105740;27;20078;-73
2022/07/25 08:55:15;;;;;;;1.98;1.40;;;23.70;99.90;;;;;;5102318;28;20078;-74
2022/07/25 08:57:45;;;;;;;3.13;1.60;;;23.60;99.90;;;;;;5094034;28;20035;-73
2022/07/25 09:00:15;;;;;;;1.90;1.60;;;23.60;99.90;;;;;;5125656;27;20364;-73
2022/07/25 09:02:41;;;;;;;2.28;1.85;;;23.50;99.90;;;;;;5093700;28;20050;-73
2022/07/25 09:05:08;;;;;;;1.65;1.55;;;23.40;99.90;;;;;;5095725;28;20082;-73
2022/07/25 09:07:40;;;;;;;3.80;1.92;;;23.60;99.90;;;;;;5092927;27;20490;-74
2022/07/25 09:10:12;;;;;;;4.32;2.08;;;23.60;99.90;;;;;;5095580;28;20068;-73
2022/07/25 09:12:39;;;;;;;2.15;1.80;;;23.60;99.90;;;;;;5093742;28;20068;-73
2022/07/25 09:15:07;;;;;;;2.28;1.55;;;23.80;99.90;;;;;;5093547;28;20051;-73
2022/07/25 09:17:34;;;;;;;2.45;1.50;;;23.70;99.90;;;;;;5093346;28;20447;-73
2022/07/25 09:20:00;;;;;;;3.25;1.58;;;23.80;99.90;;;;;;5081167;27;20358;-74
2022/07/25 09:22:26;;;;;;;1.33;1.20;;;23.60;99.90;;;;;;5074753;28;20040;-74
2022/07/25 09:24:52;;;;;;;1.85;1.40;;;23.50;99.90;;;;;;5092358;27;20616;-74
2022/07/25 09:27:18;;;;;;;1.80;1.08;;;23.50;99.90;;;;;;5100706;27;20048;-73
2022/07/25 09:29:44;;;;;;;1.98;1.30;;;23.70;99.90;;;;;;5097528;27;20126;-73
2022/07/25 09:32:24;;;;;;;1.77;1.20;;;23.70;99.90;;;;;;5124254;27;20035;-73
2022/07/25 09:34:49;;;;;;;2.90;1.17;;;23.60;99.90;;;;;;5124667;27;20042;-73
2022/07/25 09:37:18;;;;;;;1.90;1.10;;;23.50;99.90;;;;;;5092098;28;20093;-73
2022/07/25 09:39:48;;;;;;;1.30;1.10;;;23.70;99.90;;;;;;5123832;27;20122;-73
2022/07/25 09:42:31;;;;;;;1.77;1.05;;;23.80;99.90;;;;;;5093168;27;20046;-73
2022/07/25 09:45:06;;;;;;;2.28;1.13;;;23.70;99.90;;;;;;5087928;28;20051;-73
2022/07/25 09:47:35;;;;;;;1.27;0.88;;;23.80;99.90;;;;;;5092431;27;20124;-73
2022/07/25 09:50:03;;;;;;;2.50;1.00;;;24.10;99.90;;;;;;5097045;27;20054;-73
2022/07/25 09:52:28;;;;;;;0.90;0.80;;;24.20;99.90;;;;;;5092425;28;21728;-73
2022/07/25 09:54:54;;;;;;;1.05;0.85;;;24.30;99.90;;;;;;5086154;28;20112;-74
2022/07/25 09:57:22;;;;;;;0.70;0.70;;;24.30;99.70;;;;;;5091593;27;20066;-73
2022/07/25 09:59:49;;;;;;;1.50;0.85;;;24.40;99.00;;;;;;5110166;27;20058;-73
2022/07/25 10:02:35;;;;;;;1.10;0.80;;;24.30;98.20;;;;;;5092993;28;20036;-73
2022/07/25 10:05:14;;;;;;;1.63;0.90;;;24.30;97.70;;;;;;5092102;27;20043;-74
2022/07/25 10:07:43;;;;;;;1.98;0.93;;;24.10;97.90;;;;;;5121590;27;20092;-74
2022/07/25 10:10:26;;;;;;;1.02;0.90;;;24.10;98.70;;;;;;5073980;28;20122;-74
2022/07/25 10:13:16;;;;;;;1.42;0.90;;;24.00;99.10;;;;;;5090006;28;20062;-74
2022/07/25 10:15:50;;;;;;;0.98;0.88;;;23.80;99.40;;;;;;5091606;28;20574;-73
2022/07/25 10:18:23;;;;;;;2.08;0.80;;;23.80;99.90;;;;;;5118980;27;20039;-73
2022/07/25 10:20:52;;;;;;;1.42;1.00;;;23.60;99.90;;;;;;5088513;28;20043;-73
2022/07/25 10:23:26;;;;;;;2.03;0.70;;;23.40;99.90;;;;;;5094862;27;20047;-73
2022/07/25 10:26:06;;;;;;;1.30;0.80;;;23.40;99.90;;;;;;5092599;28;20379;-73
2022/07/25 10:28:45;;;;;;;2.40;1.08;;;23.30;99.90;;;;;;5089591;27;20050;-73
2022/07/25 10:31:23;;;;;;;2.50;0.82;;;23.20;99.90;;;;;;5090122;28;20047;-73
2022/07/25 10:33:58;;;;;;;1.08;0.90;;;23.10;99.90;;;;;;5088671;28;20471;-73
2022/07/25 10:36:32;;;;;;;1.02;0.70;;;23.00;99.90;;;;;;5105781;28;20096;-73
2022/07/25 10:39:00;;;;;;;1.95;0.80;;;22.90;99.90;;;;;;5069924;28;20101;-73
2022/07/25 10:41:27;;;;;;;1.33;0.80;;;22.70;99.90;;;;;;5123148;27;20107;-73
2022/07/25 10:43:58;;;;;;;0.90;0.60;;;22.40;99.90;;;;;;5093889;27;20071;-73
2022/07/25 10:46:26;;;;;;;1.15;0.70;;;22.30;99.90;;;;;;5125100;27;20039;-73
2022/07/25 10:49:03;;;;;;;1.02;0.50;;;22.20;99.90;;;;;;5093977;27;20031;-73
2022/07/25 10:51:36;;;;;;;0.75;0.60;;;22.20;99.90;;;;;;5098054;27;20097;-73
2022/07/25 10:54:16;;;;;;;1.73;0.75;;;22.20;99.90;;;;;;5093458;27;20044;-73
2022/07/25 10:56:55;;;;;;;2.17;1.08;;;22.30;99.90;;;;;;5076615;27;20045;-73
2022/07/25 10:59:40;;;;;;;1.20;0.70;;;22.40;99.90;;;;;;5109612;27;20079;-73
2022/07/25 11:02:08;;;;;;;1.67;0.80;;;22.70;99.90;;;;;;5089974;28;20088;-73
2022/07/25 11:04:35;;;;;;;0.98;0.65;;;23.00;99.90;;;;;;5093664;28;20051;-73
2022/07/25 11:07:08;;;;;;;2.25;1.00;;;23.40;99.90;;;;;;5091778;28;20406;-73
2022/07/25 11:09:34;;;;;;;2.33;1.00;;;23.20;99.90;;;;;;5086078;28;20078;-73
2022/07/25 11:12:00;;;;;;;4.80;1.30;;;23.10;99.90;;;;;;5074019;28;20480;-73
2022/07/25 11:14:35;;;;;;;5.28;1.35;;;23.00;99.90;;;;;;5089702;28;20043;-73
2022/07/25 11:17:18;;;;;;;3.05;1.40;;;23.00;99.90;;;;;;5088582;28;20401;-73
2022/07/25 11:19:56;;;;;;;2.95;1.30;;;22.90;99.90;;;;;;5088436;28;20525;-73
2022/07/25 11:22:23;;;;;;;2.00;1.13;;;23.00;99.90;;;;;;5092503;28;20143;-72
2022/07/25 11:24:49;;;;;;;2.90;1.15;;;23.00;99.90;;;;;;5092285;28;20362;-73
2022/07/25 11:27:32;;;;;;;2.47;0.90;;;23.10;99.90;;;;;;5092468;28;20039;-73
2022/07/25 11:30:13;;;;;;;1.75;1.00;;;23.10;99.90;;;;;;5078117;28;20063;-73
2022/07/25 11:32:39;;;;;;;3.10;1.05;;;23.20;99.90;;;;;;5085642;28;20115;-73
2022/07/25 11:35:05;;;;;;;2.17;1.00;;;23.30;99.90;;;;;;5090097;28;20189;-73
2022/07/25 11:37:35;;;;;;;4.00;1.10;;;23.50;99.90;;;;;;5092159;28;20039;-73
2022/07/25 11:40:02;;;;;;;4.22;1.30;;;23.50;99.90;;;;;;5071414;28;20043;-74
2022/07/25 11:42:39;;;;;;;3.08;1.27;;;23.70;99.90;;;;;;5096837;28;20102;-72
2022/07/25 11:45:17;;;;;;;2.28;1.15;;;23.80;99.90;;;;;;5098813;28;20039;-73
2022/07/25 11:47:44;;;;;;;1.95;1.00;;;23.90;99.90;;;;;;5111481;27;20035;-73
2022/07/25 11:50:13;;;;;;;3.33;1.42;;;23.70;99.90;;;;;;5103181;27;20157;-72
2022/07/25 11:52:44;;;;;;;4.35;1.52;;;23.60;99.90;;;;;;5096018;27;20047;-73
2022/07/25 11:55:16;;;;;;;3.42;1.40;;;23.00;99.90;;;;;;5080690;28;20432;-73
2022/07/25 11:57:44;;;;;;;3.28;1.20;;;22.60;99.90;;;;;;5098691;28;20042;-73
2022/07/25 12:00:11;;;;;;;3.72;1.30;;;22.60;99.90;;;;;;5129121;27;20051;-73
2022/07/25 12:02:37;;;;;;;4.80;1.30;;;22.50;99.90;;;;;;5095659;27;20043;-73
2022/07/25 12:05:06;;;;;;;2.92;1.25;;;22.70;99.90;;;;;;5097028;28;20130;-73
2022/07/25 12:07:38;;;;;;;2.58;1.10;;;22.70;99.90;;;;;;5095956;28;20047;-73
2022/07/25 12:10:06;;;;;;;3.67;1.30;;;22.70;99.90;;;;;;5095401;28;20154;-73
2022/07/25 12:12:47;;;;;;;2.72;1.13;;;22.80;99.90;;;;;;5077358;28;20043;-73
2022/07/25 12:15:14;;;;;;;2.72;1.00;;;23.00;99.90;;;;;;5087346;27;20054;-73
2022/07/25 12:17:42;;;;;;;3.25;1.08;;;23.10;99.90;;;;;;5099618;27;20039;-73
2022/07/25 12:20:16;;;;;;;3.17;1.10;;;23.10;99.90;;;;;;5128782;27;20047;-73
2022/07/25 12:22:42;;;;;;;2.28;0.88;;;22.90;99.90;;;;;;5096888;28;20496;-73
2022/07/25 12:25:09;;;;;;;1.45;0.90;;;22.90;99.90;;;;;;5081761;27;20040;-73
2022/07/25 12:27:34;;;;;;;2.08;0.93;;;23.60;99.90;;;;;;5100280;28;20039;-73
2022/07/25 12:30:00;;;;;;;3.30;1.17;;;24.00;99.90;;;;;;5098019;27;20051;-73
2022/07/25 12:32:26;;;;;;;4.28;1.15;;;23.80;99.90;;;;;;5107424;28;20043;-73
2022/07/25 12:34:51;;;;;;;3.53;1.30;;;23.70;99.90;;;;;;5093952;27;20049;-73
2022/07/25 12:37:17;;;;;;;1.80;1.10;;;23.30;99.90;;;;;;5125208;27;20126;-73
2022/07/25 12:39:43;;;;;;;2.40;1.08;;;23.30;99.90;;;;;;5098202;28;20035;-73
2022/07/25 12:42:08;;;;;;;3.88;1.23;;;23.30;99.90;;;;;;5092752;28;20478;-73
2022/07/25 12:44:35;;;;;;;3.15;1.17;;;23.10;99.90;;;;;;5085860;28;20044;-76
2022/07/25 12:47:01;;;;;;;2.72;1.05;;;23.00;99.90;;;;;;5103701;27;20046;-74
2022/07/25 12:49:28;;;;;;;2.65;0.90;;;23.00;99.90;;;;;;5094429;27;20035;-74
2022/07/25 12:51:54;;;;;;;2.78;1.00;;;22.80;99.90;;;;;;5096935;28;20062;-74